Time;durP1;ratioP1;P1;durP2;ratioP2;P2;SDS_P1;SDS_P2;PMS_P1;PMS_P2;Temp;Humidity;BMP_temperature;BMP_pressure;BME280_temperature;BME280_humidity;BME280_pressure;Samples;Min_cycle;Max_cycle;Signal;HPM_P1;HPM_P2
2022/04/04 00:01:05;;;;;;;27.05;22.35;;;0.30;99.90;;;;;;4976416;28;20039;-60
2022/04/04 00:03:31;;;;;;;25.90;22.58;;;0.20;99.90;;;;;;4975467;28;20029;-60
2022/04/04 00:05:57;;;;;;;38.05;33.95;;;0.40;99.90;;;;;;4975774;28;20042;-60
2022/04/04 00:08:23;;;;;;;29.33;26.17;;;0.40;99.90;;;;;;4975623;28;21995;-60
2022/04/04 00:10:49;;;;;;;29.35;26.25;;;0.40;99.90;;;;;;4975581;28;20059;-60
2022/04/04 00:13:14;;;;;;;28.42;25.35;;;0.40;99.90;;;;;;4976344;28;20472;-60
2022/04/04 00:15:41;;;;;;;46.42;41.50;;;0.30;99.90;;;;;;4975479;28;20480;-60
2022/04/04 00:18:11;;;;;;;35.88;32.05;;;0.30;99.90;;;;;;4975407;28;20082;-59
2022/04/04 00:20:39;;;;;;;35.03;31.42;;;0.30;99.90;;;;;;4975400;28;20034;-60
2022/04/04 00:23:06;;;;;;;32.88;29.38;;;0.10;99.90;;;;;;4975660;28;20512;-60
2022/04/04 00:25:32;;;;;;;27.70;24.33;;;0.10;99.90;;;;;;4975477;28;20104;-60
2022/04/04 00:27:58;;;;;;;30.60;24.45;;;0.10;99.90;;;;;;4975164;28;20106;-60
2022/04/04 00:30:24;;;;;;;28.40;24.45;;;-0.10;99.90;;;;;;4975613;28;20030;-60
2022/04/04 00:32:49;;;;;;;28.15;25.15;;;0.00;99.90;;;;;;4975212;28;20046;-60
2022/04/04 00:35:15;;;;;;;25.95;23.15;;;-0.20;99.90;;;;;;4974935;28;20054;-60
2022/04/04 00:37:41;;;;;;;25.98;23.17;;;-0.20;99.90;;;;;;4973965;28;20034;-60
2022/04/04 00:40:08;;;;;;;28.10;24.98;;;-0.20;99.90;;;;;;4975339;28;20035;-60
2022/04/04 00:42:34;;;;;;;27.45;24.52;;;-0.30;99.90;;;;;;4974978;28;20365;-59
2022/04/04 00:45:00;;;;;;;29.98;26.27;;;-0.30;99.90;;;;;;4974968;28;20031;-60
2022/04/04 00:47:26;;;;;;;28.88;25.85;;;-0.40;99.90;;;;;;4975180;28;20105;-60
2022/04/04 00:49:51;;;;;;;29.20;26.02;;;-0.50;99.90;;;;;;4975282;28;20154;-60
2022/04/04 00:52:18;;;;;;;28.25;25.05;;;-0.40;99.90;;;;;;4975054;28;20023;-60
2022/04/04 00:54:45;;;;;;;27.30;24.38;;;-0.50;99.90;;;;;;4974449;28;20026;-59
2022/04/04 00:57:11;;;;;;;27.67;24.63;;;-0.50;99.90;;;;;;4974602;28;20415;-60
2022/04/04 00:59:37;;;;;;;29.67;24.42;;;-0.50;99.90;;;;;;4975007;28;20027;-59
2022/04/04 01:02:04;;;;;;;26.85;23.67;;;-0.60;99.90;;;;;;4974894;28;20027;-60
2022/04/04 01:04:30;;;;;;;27.25;24.27;;;-0.60;99.90;;;;;;4971125;28;20030;-60
2022/04/04 01:06:57;;;;;;;26.58;23.65;;;-0.70;99.90;;;;;;4974490;28;20085;-58
2022/04/04 01:09:23;;;;;;;28.70;24.08;;;-0.70;99.90;;;;;;4974334;28;20049;-60
2022/04/04 01:12:12;;;;;;;30.38;24.17;;;-0.80;99.90;;;;;;4973321;28;20476;-60
2022/04/04 01:14:41;;;;;;;30.42;23.63;;;-0.70;99.90;;;;;;4974446;28;20489;-60
2022/04/04 01:17:08;;;;;;;23.33;20.90;;;-0.70;99.90;;;;;;4974349;28;20035;-60
2022/04/04 01:19:34;;;;;;;24.35;21.10;;;-0.60;99.90;;;;;;4974505;28;20033;-60
2022/04/04 01:22:04;;;;;;;26.77;21.20;;;-0.70;99.90;;;;;;4974271;28;20046;-61
2022/04/04 01:24:30;;;;;;;28.02;20.55;;;;;;;;;;4974596;28;20085;-60
2022/04/04 01:26:56;;;;;;;32.17;21.95;;;;;;;;;;4974114;28;20137;-62
2022/04/04 01:29:22;;;;;;;33.75;22.98;;;;;;;;;;4974346;28;20023;-60
2022/04/04 01:31:49;;;;;;;32.92;24.27;;;;;;;;;;4974484;28;20033;-60
2022/04/04 01:34:17;;;;;;;33.45;25.00;;;;;;;;;;4974409;28;20050;-60
2022/04/04 01:36:43;;;;;;;53.80;46.38;;;-0.90;99.90;;;;;;4973564;28;20031;-60
2022/04/04 01:39:08;;;;;;;45.75;40.85;;;-0.70;99.90;;;;;;4974159;28;20042;-60
2022/04/04 01:41:34;;;;;;;32.20;27.02;;;;;;;;;;4973678;28;20547;-57
2022/04/04 01:44:01;;;;;;;31.10;24.38;;;-1.10;99.90;;;;;;4958788;28;20089;-59
2022/04/04 01:46:27;;;;;;;33.15;23.73;;;-1.00;99.90;;;;;;4974414;28;20034;-60
2022/04/04 01:48:58;;;;;;;31.55;21.83;;;-1.00;99.90;;;;;;4973855;28;20037;-60
2022/04/04 01:51:25;;;;;;;30.52;21.55;;;-1.10;99.90;;;;;;4973390;28;20109;-59
2022/04/04 01:53:51;;;;;;;31.10;21.42;;;-1.20;99.90;;;;;;4973555;28;20050;-59
2022/04/04 01:56:18;;;;;;;33.60;21.85;;;-1.40;99.90;;;;;;4973734;28;20105;-59
2022/04/04 01:58:44;;;;;;;32.40;22.50;;;-1.50;99.90;;;;;;4973909;28;20034;-60
2022/04/04 02:01:22;;;;;;;31.60;22.13;;;-1.40;99.90;;;;;;4973947;28;20491;-59
2022/04/04 02:03:50;;;;;;;31.05;20.90;;;-1.50;99.90;;;;;;4972726;28;20030;-59
2022/04/04 02:06:18;;;;;;;30.25;21.20;;;-1.50;99.90;;;;;;4973136;28;20415;-60
2022/04/04 02:08:44;;;;;;;35.35;25.10;;;-1.50;99.90;;;;;;4973351;28;20031;-59
2022/04/04 02:11:12;;;;;;;25.52;20.77;;;-1.40;99.90;;;;;;4973813;28;20480;-59
2022/04/04 02:13:38;;;;;;;28.00;20.75;;;-1.30;99.90;;;;;;4973668;28;20085;-60
2022/04/04 02:16:05;;;;;;;25.35;20.48;;;-1.30;99.90;;;;;;4973573;28;20030;-60
2022/04/04 02:18:31;;;;;;;27.42;21.58;;;-1.40;99.90;;;;;;4973385;28;20051;-60
2022/04/04 02:20:58;;;;;;;26.98;20.38;;;-1.40;99.90;;;;;;4972669;28;20042;-59
2022/04/04 02:23:24;;;;;;;24.33;20.25;;;-1.30;99.90;;;;;;4973151;28;20031;-60
2022/04/04 02:25:52;;;;;;;24.75;20.02;;;-1.40;99.90;;;;;;4973177;28;20086;-59
2022/04/04 02:28:18;;;;;;;27.88;20.90;;;-1.50;99.90;;;;;;4973780;28;20055;-60
2022/04/04 02:30:46;;;;;;;25.17;19.15;;;-1.40;99.90;;;;;;4972895;28;20045;-59
2022/04/04 02:33:15;;;;;;;23.25;18.83;;;-1.60;99.90;;;;;;4972653;28;20404;-60
2022/04/04 02:35:41;;;;;;;28.55;21.63;;;-1.70;99.90;;;;;;4972818;28;20132;-60
2022/04/04 02:38:07;;;;;;;25.05;20.23;;;-1.60;99.90;;;;;;4972614;28;20088;-59
2022/04/04 02:40:33;;;;;;;24.45;19.73;;;-1.50;99.90;;;;;;4973502;28;20041;-60
2022/04/04 02:43:00;;;;;;;25.60;20.65;;;-1.70;99.90;;;;;;4987956;28;20030;-60
2022/04/04 02:45:26;;;;;;;24.60;19.17;;;-1.60;99.90;;;;;;4972554;28;20113;-60
2022/04/04 02:47:52;;;;;;;25.50;20.92;;;-1.60;99.90;;;;;;4972533;28;20019;-60
2022/04/04 02:50:18;;;;;;;23.00;19.30;;;-1.50;99.90;;;;;;4972854;28;20033;-60
2022/04/04 02:52:44;;;;;;;22.30;19.75;;;-1.80;99.90;;;;;;4972773;28;20822;-59
2022/04/04 02:57:55;;;;;;;22.00;19.70;;;-1.80;99.90;;;;;;4972719;28;20085;-60
2022/04/04 03:00:23;;;;;;;25.70;20.45;;;-1.90;99.90;;;;;;4972848;28;20077;-60
2022/04/04 03:02:50;;;;;;;25.45;21.10;;;-1.90;99.90;;;;;;4972337;28;20110;-60
2022/04/04 03:05:16;;;;;;;24.52;20.27;;;-2.00;99.90;;;;;;4972087;28;20023;-60
2022/04/04 03:07:42;;;;;;;24.23;20.55;;;-1.90;99.90;;;;;;4972965;28;20066;-59
2022/04/04 03:10:09;;;;;;;23.45;20.52;;;-1.80;99.90;;;;;;4972779;28;20492;-60
2022/04/04 03:12:55;;;;;;;21.90;18.83;;;-1.80;99.90;;;;;;4972375;28;20027;-59
2022/04/04 03:15:23;;;;;;;21.08;18.88;;;-2.00;99.90;;;;;;4972197;28;20043;-60
2022/04/04 03:17:52;;;;;;;21.70;19.38;;;-2.10;99.90;;;;;;4972044;28;20508;-60
2022/04/04 03:20:19;;;;;;;20.35;18.25;;;-2.20;99.90;;;;;;4972390;28;20081;-60
2022/04/04 03:22:47;;;;;;;22.92;20.15;;;-2.30;99.90;;;;;;4971363;28;20081;-59
2022/04/04 03:25:14;;;;;;;23.17;20.67;;;-2.10;99.90;;;;;;4970761;28;20384;-60
2022/04/04 03:27:42;;;;;;;31.90;26.58;;;-2.00;99.90;;;;;;4972170;28;20030;-59
2022/04/04 03:30:13;;;;;;;22.95;20.52;;;-2.00;99.90;;;;;;4972094;28;20037;-60
2022/04/04 03:32:42;;;;;;;24.45;20.90;;;-2.00;99.90;;;;;;4971953;28;20015;-61
2022/04/04 03:35:08;;;;;;;23.83;20.95;;;-2.00;99.90;;;;;;4971928;28;20531;-60
2022/04/04 03:37:35;;;;;;;22.85;20.35;;;-2.10;99.90;;;;;;4972320;28;20051;-59
2022/04/04 03:40:02;;;;;;;21.88;19.58;;;-2.00;99.90;;;;;;4972261;28;20118;-59
2022/04/04 03:42:28;;;;;;;23.25;20.10;;;-2.10;99.90;;;;;;4972074;28;20452;-60
2022/04/04 03:44:54;;;;;;;24.42;21.83;;;-2.10;99.90;;;;;;4972477;28;20041;-60
2022/04/04 03:47:21;;;;;;;21.35;19.15;;;-2.10;99.90;;;;;;4971917;28;20396;-60
2022/04/04 03:49:47;;;;;;;21.73;19.42;;;-2.10;99.90;;;;;;4972203;28;20030;-60
2022/04/04 03:52:13;;;;;;;23.15;19.48;;;-2.10;99.90;;;;;;4970447;28;20027;-60
2022/04/04 03:54:38;;;;;;;23.30;19.45;;;-2.20;99.90;;;;;;4972001;28;20029;-59
2022/04/04 03:57:04;;;;;;;26.17;21.05;;;-2.10;99.90;;;;;;4971913;28;20399;-60
2022/04/04 03:59:30;;;;;;;25.95;21.77;;;-2.10;99.90;;;;;;4972120;28;20039;-60
2022/04/04 04:01:56;;;;;;;26.77;20.88;;;-2.10;99.90;;;;;;4971690;28;20037;-59
2022/04/04 04:04:21;;;;;;;27.27;22.20;;;-2.10;99.90;;;;;;4972525;28;20468;-59
2022/04/04 04:06:47;;;;;;;25.60;21.98;;;-2.20;99.90;;;;;;4972049;28;20031;-59
2022/04/04 04:09:16;;;;;;;25.45;21.23;;;;;;;;;;4970830;28;20499;-59
2022/04/04 04:11:42;;;;;;;25.58;21.23;;;;;;;;;;4972477;28;20031;-59
2022/04/04 04:14:08;;;;;;;25.05;21.25;;;;;;;;;;4972188;28;20023;-59
2022/04/04 04:16:34;;;;;;;25.08;20.63;;;;;;;;;;4972098;28;20023;-59
2022/04/04 04:19:00;;;;;;;25.42;21.58;;;;;;;;;;4971940;28;20027;-61
2022/04/04 04:21:26;;;;;;;26.77;22.02;;;;;;;;;;4970823;28;20062;-59
2022/04/04 04:23:52;;;;;;;25.05;21.88;;;-2.30;99.90;;;;;;4972025;28;20027;-59
2022/04/04 04:26:18;;;;;;;24.77;22.08;;;-2.30;99.90;;;;;;4973375;28;20050;-60
2022/04/04 04:28:46;;;;;;;25.50;21.83;;;-2.40;99.90;;;;;;4975379;28;20058;-60
2022/04/04 04:31:14;;;;;;;26.42;23.30;;;-2.50;99.90;;;;;;4973994;28;20078;-60
2022/04/04 04:33:40;;;;;;;27.13;23.05;;;-2.50;99.90;;;;;;4975474;28;20046;-58
2022/04/04 04:36:07;;;;;;;24.73;22.05;;;-2.60;99.90;;;;;;4974683;28;20046;-60
2022/04/04 04:38:34;;;;;;;25.90;22.58;;;-2.50;99.90;;;;;;4975678;28;20680;-60
2022/04/04 04:41:01;;;;;;;25.05;22.35;;;-2.60;99.90;;;;;;4959857;28;20046;-61
2022/04/04 04:43:26;;;;;;;24.83;22.02;;;-2.60;99.90;;;;;;4975680;28;20097;-60
2022/04/04 04:45:52;;;;;;;26.58;22.70;;;-2.50;99.90;;;;;;4974833;28;20090;-60
2022/04/04 04:48:19;;;;;;;25.65;22.75;;;-2.50;99.90;;;;;;4975486;28;20019;-60
2022/04/04 04:50:46;;;;;;;29.27;22.80;;;-2.60;99.90;;;;;;4974960;28;20504;-60
2022/04/04 04:53:12;;;;;;;26.30;22.98;;;-2.60;99.90;;;;;;4975266;28;20021;-60
2022/04/04 04:55:37;;;;;;;28.70;24.08;;;-2.50;99.90;;;;;;4975249;28;20026;-60
2022/04/04 04:58:03;;;;;;;28.33;23.15;;;-2.70;99.90;;;;;;4975177;28;20492;-61
2022/04/04 05:00:29;;;;;;;28.63;24.00;;;-2.70;99.90;;;;;;4974859;28;20045;-60
2022/04/04 05:05:41;;;;;;;27.42;24.08;;;-2.80;99.90;;;;;;4974806;28;20515;-60
2022/04/04 05:08:07;;;;;;;28.27;23.52;;;-2.80;99.90;;;;;;4974832;28;20042;-60
2022/04/04 05:10:33;;;;;;;29.48;23.83;;;-2.80;99.90;;;;;;4974940;28;20022;-60
2022/04/04 05:12:59;;;;;;;30.45;25.23;;;-2.70;99.90;;;;;;4975105;28;20087;-59
2022/04/04 05:15:25;;;;;;;30.17;25.40;;;-2.60;99.90;;;;;;4972979;28;20047;-60
2022/04/04 05:17:52;;;;;;;31.35;24.95;;;-2.60;99.90;;;;;;4974940;28;20030;-60
2022/04/04 05:20:18;;;;;;;30.95;24.50;;;-2.70;99.90;;;;;;4974741;28;20062;-60
2022/04/04 05:22:44;;;;;;;29.55;24.13;;;-2.80;99.90;;;;;;4974576;28;20055;-60
2022/04/04 05:25:11;;;;;;;32.05;24.65;;;-2.90;99.90;;;;;;4974906;28;20055;-61
2022/04/04 05:27:40;;;;;;;29.30;24.63;;;-2.70;99.90;;;;;;4974243;28;20015;-60
2022/04/04 05:30:08;;;;;;;28.48;23.30;;;-2.90;99.90;;;;;;4973890;28;20031;-61
2022/04/04 05:32:34;;;;;;;34.63;29.70;;;-3.00;99.90;;;;;;4974394;28;20019;-61
2022/04/04 05:35:05;;;;;;;26.85;22.60;;;-2.90;99.90;;;;;;4959028;28;20047;-60
2022/04/04 05:37:32;;;;;;;30.55;23.60;;;-3.00;99.90;;;;;;4970135;28;20451;-60
2022/04/04 05:39:57;;;;;;;30.25;23.75;;;-3.10;99.90;;;;;;4973819;28;20018;-60
2022/04/04 05:42:23;;;;;;;35.38;25.98;;;-2.90;99.90;;;;;;4972693;28;20403;-60
2022/04/04 05:44:49;;;;;;;34.53;28.58;;;-2.90;99.90;;;;;;4973797;28;20030;-59
2022/04/04 05:47:17;;;;;;;31.58;26.83;;;-2.80;99.90;;;;;;4973901;28;20479;-60
2022/04/04 05:49:44;;;;;;;26.17;21.73;;;-2.80;99.90;;;;;;4973310;28;20022;-60
2022/04/04 05:52:09;;;;;;;27.08;22.60;;;-2.80;99.90;;;;;;4974422;28;20038;-61
2022/04/04 05:54:53;;;;;;;33.47;27.73;;;-2.80;99.90;;;;;;4973774;28;20472;-61
2022/04/04 05:57:22;;;;;;;32.58;26.90;;;-2.80;99.90;;;;;;4973575;28;20022;-61
2022/04/04 05:59:48;;;;;;;32.03;28.10;;;-2.50;99.90;;;;;;4973450;28;20038;-60
2022/04/04 06:02:14;;;;;;;33.67;28.10;;;-2.50;99.90;;;;;;4973854;28;20034;-61
2022/04/04 06:04:39;;;;;;;26.63;23.83;;;-2.40;99.90;;;;;;4974094;28;20019;-60
2022/04/04 06:07:05;;;;;;;24.67;22.05;;;-1.90;99.90;;;;;;4974047;28;20110;-61
2022/04/04 06:09:31;;;;;;;25.83;21.35;;;-1.30;99.90;;;;;;4973146;28;20507;-60
2022/04/04 06:11:56;;;;;;;22.55;20.15;;;-0.70;99.90;;;;;;4973548;28;20050;-63
2022/04/04 06:14:23;;;;;;;19.65;17.55;;;0.40;99.90;;;;;;4973609;28;20866;-60
2022/04/04 06:16:48;;;;;;;19.15;16.45;;;1.30;99.90;;;;;;4973163;28;20029;-60
2022/04/04 06:19:14;;;;;;;17.40;15.60;;;2.30;99.90;;;;;;4973685;28;20023;-60
2022/04/04 06:21:40;;;;;;;23.88;21.27;;;3.10;99.90;;;;;;4973315;28;20035;-61
2022/04/04 06:24:06;;;;;;;34.63;30.27;;;3.70;99.90;;;;;;4971938;28;20022;-60
2022/04/04 06:26:31;;;;;;;19.58;17.13;;;4.10;99.90;;;;;;4973439;28;20034;-61
2022/04/04 06:28:57;;;;;;;15.18;13.60;;;4.60;99.90;;;;;;4973190;28;20037;-60
2022/04/04 06:31:23;;;;;;;18.20;15.00;;;4.90;99.90;;;;;;4973981;28;20026;-60
2022/04/04 06:33:50;;;;;;;17.48;15.57;;;5.20;99.90;;;;;;4972980;28;20457;-61
2022/04/04 06:36:15;;;;;;;23.38;20.98;;;5.70;99.90;;;;;;4973159;28;20074;-60
2022/04/04 06:38:41;;;;;;;18.65;16.48;;;6.30;99.90;;;;;;4972855;28;20046;-60
2022/04/04 06:41:07;;;;;;;25.20;21.70;;;5.90;99.90;;;;;;4972522;28;20113;-60
2022/04/04 06:43:32;;;;;;;24.40;21.42;;;5.60;99.90;;;;;;4973263;28;20034;-60
2022/04/04 06:45:59;;;;;;;21.05;19.02;;;5.80;99.90;;;;;;4973064;28;20077;-60
2022/04/04 06:48:26;;;;;;;16.00;14.40;;;6.40;99.90;;;;;;4972546;28;20507;-61
2022/04/04 06:50:52;;;;;;;15.50;14.00;;;7.30;99.90;;;;;;4972921;28;20031;-61
2022/04/04 06:53:21;;;;;;;15.52;13.68;;;7.60;99.90;;;;;;4972594;28;20522;-61
2022/04/04 06:55:47;;;;;;;17.65;15.95;;;8.80;99.90;;;;;;4972313;28;20412;-61
2022/04/04 06:58:13;;;;;;;18.50;16.63;;;8.50;98.10;;;;;;4973103;28;20034;-60
2022/04/04 07:00:41;;;;;;;19.70;17.70;;;8.70;98.80;;;;;;4972428;28;20047;-61
2022/04/04 07:03:08;;;;;;;17.00;15.20;;;9.10;98.90;;;;;;4972803;28;20098;-60
2022/04/04 07:05:34;;;;;;;17.30;13.68;;;9.30;99.90;;;;;;4972158;28;20031;-60
2022/04/04 07:08:00;;;;;;;21.65;16.85;;;9.70;99.00;;;;;;4972526;28;20377;-60
2022/04/04 07:10:27;;;;;;;16.38;14.45;;;10.80;95.80;;;;;;4972575;28;20034;-61
2022/04/04 07:12:53;;;;;;;15.35;13.73;;;11.00;95.70;;;;;;4972261;28;20546;-61
2022/04/04 07:15:18;;;;;;;16.67;14.10;;;11.40;95.10;;;;;;4972382;28;20026;-61
2022/04/04 07:17:45;;;;;;;16.42;14.82;;;11.80;92.90;;;;;;4972538;28;20023;-61
2022/04/04 07:20:11;;;;;;;17.40;14.70;;;12.00;93.30;;;;;;4972501;28;20393;-60
2022/04/04 07:22:40;;;;;;;16.98;14.30;;;11.60;92.10;;;;;;4972993;28;20034;-60
2022/04/04 07:25:10;;;;;;;16.67;14.15;;;11.30;90.90;;;;;;4971640;28;20440;-60
2022/04/04 07:27:39;;;;;;;15.27;13.65;;;11.50;91.60;;;;;;4971092;28;20122;-61
2022/04/04 07:30:06;;;;;;;15.85;13.88;;;12.40;89.70;;;;;;4972529;28;20499;-60
2022/04/04 07:32:35;;;;;;;16.10;14.10;;;11.90;88.80;;;;;;4972475;28;20034;-61
2022/04/04 07:35:01;;;;;;;15.73;13.98;;;11.90;89.80;;;;;;4955497;28;20050;-61
2022/04/04 07:37:26;;;;;;;16.20;14.35;;;12.90;88.50;;;;;;4972525;28;20031;-59
2022/04/04 07:39:52;;;;;;;15.35;13.77;;;12.60;86.20;;;;;;4971321;28;20035;-61
2022/04/04 07:42:18;;;;;;;16.75;13.93;;;13.20;83.00;;;;;;4972065;28;20026;-60
2022/04/04 07:44:43;;;;;;;17.95;12.98;;;13.80;81.70;;;;;;4972515;28;20050;-60
2022/04/04 07:47:09;;;;;;;16.70;14.02;;;11.60;84.10;;;;;;4972180;28;20089;-61
2022/04/04 07:49:35;;;;;;;15.15;13.55;;;12.00;85.10;;;;;;4972558;28;20025;-61
2022/04/04 07:52:01;;;;;;;15.88;12.70;;;13.10;80.00;;;;;;4970647;28;20442;-60
2022/04/04 07:54:26;;;;;;;17.50;13.75;;;13.80;83.50;;;;;;4971755;28;20022;-61
2022/04/04 07:56:53;;;;;;;13.63;12.10;;;14.00;81.10;;;;;;4972042;28;20045;-60
2022/04/04 07:59:19;;;;;;;12.98;11.68;;;13.50;76.30;;;;;;4972126;28;20411;-60
2022/04/04 08:01:45;;;;;;;13.40;11.98;;;12.00;79.90;;;;;;4974351;28;20114;-61
2022/04/04 08:04:12;;;;;;;12.57;11.15;;;12.00;78.60;;;;;;4976302;28;20038;-60
2022/04/04 08:06:37;;;;;;;13.07;11.10;;;12.30;78.60;;;;;;4974425;28;20407;-60
2022/04/04 08:09:03;;;;;;;12.27;10.93;;;14.70;75.30;;;;;;4965264;28;20029;-59
2022/04/04 08:11:29;;;;;;;13.35;11.18;;;14.00;75.40;;;;;;4972938;28;20023;-60
2022/04/04 08:13:55;;;;;;;12.82;10.55;;;15.70;73.10;;;;;;4975695;28;20027;-61
2022/04/04 08:16:22;;;;;;;12.43;10.85;;;14.60;74.20;;;;;;4975806;28;20514;-60
2022/04/04 08:18:48;;;;;;;12.45;10.68;;;16.60;70.10;;;;;;4975711;28;20093;-61
2022/04/04 08:21:15;;;;;;;13.02;11.20;;;16.50;69.70;;;;;;4974972;28;20039;-61
2022/04/04 08:23:42;;;;;;;15.45;12.48;;;14.80;68.20;;;;;;4975032;28;20037;-61
2022/04/04 08:26:08;;;;;;;13.70;11.75;;;15.40;69.50;;;;;;4975479;28;20054;-61
2022/04/04 08:28:34;;;;;;;10.93;9.82;;;17.30;65.60;;;;;;4975963;28;20030;-61
2022/04/04 08:30:59;;;;;;;11.18;9.65;;;15.30;69.10;;;;;;4975490;28;20027;-60
2022/04/04 08:33:25;;;;;;;11.68;9.48;;;15.40;66.50;;;;;;4975121;28;20038;-61
2022/04/04 08:35:53;;;;;;;11.20;9.10;;;13.00;69.80;;;;;;4974611;28;20122;-60
2022/04/04 08:38:22;;;;;;;12.13;9.43;;;15.20;66.60;;;;;;4974919;28;20026;-61
2022/04/04 08:40:49;;;;;;;10.45;8.57;;;14.80;68.30;;;;;;4975116;28;20492;-61
2022/04/04 08:43:18;;;;;;;11.40;9.80;;;15.50;65.10;;;;;;4975446;28;20018;-61
2022/04/04 08:45:44;;;;;;;10.55;8.88;;;16.70;65.10;;;;;;4974962;28;20097;-61
2022/04/04 08:48:11;;;;;;;10.02;8.95;;;16.30;65.40;;;;;;4974954;28;20105;-61
2022/04/04 08:50:39;;;;;;;10.68;8.75;;;18.30;61.80;;;;;;4975185;28;20031;-61
2022/04/04 08:53:08;;;;;;;15.25;13.30;;;;;;;;;;4974694;28;20033;-61
2022/04/04 08:55:37;;;;;;;12.15;10.82;;;20.20;57.50;;;;;;4974952;28;20042;-61
2022/04/04 08:58:03;;;;;;;10.85;8.70;;;17.80;59.20;;;;;;4975055;28;20033;-61
2022/04/04 09:00:30;;;;;;;11.32;9.60;;;17.70;59.10;;;;;;4974531;28;20039;-61
2022/04/04 09:03:04;;;;;;;13.20;10.75;;;19.90;58.00;;;;;;4974567;28;20035;-62
2022/04/04 09:05:32;;;;;;;11.60;9.35;;;16.40;61.20;;;;;;4974427;28;20063;-61
2022/04/04 09:08:00;;;;;;;11.95;9.05;;;16.30;59.40;;;;;;4974216;28;20066;-61
2022/04/04 09:10:36;;;;;;;11.25;8.70;;;15.10;59.80;;;;;;4975477;28;20034;-61
2022/04/04 09:13:12;;;;;;;8.70;7.25;;;17.30;59.10;;;;;;4974395;28;20030;-61
2022/04/04 09:16:04;;;;;;;7.55;6.03;;;17.10;58.10;;;;;;4974736;28;20070;-61
2022/04/04 09:18:41;;;;;;;7.72;6.93;;;15.30;58.50;;;;;;4974072;28;20110;-61
2022/04/04 09:21:12;;;;;;;7.95;7.15;;;15.50;56.50;;;;;;4974047;28;20053;-61
2022/04/04 09:23:45;;;;;;;10.15;7.75;;;14.60;57.80;;;;;;4974405;28;20031;-61
2022/04/04 09:26:31;;;;;;;8.05;7.25;;;16.30;56.80;;;;;;4974387;28;20030;-61
2022/04/04 09:29:17;;;;;;;8.48;7.03;;;14.60;58.70;;;;;;4974282;28;20038;-61
2022/04/04 09:31:55;;;;;;;9.55;7.28;;;13.50;60.10;;;;;;4972066;28;20031;-61
2022/04/04 09:34:20;;;;;;;12.40;7.88;;;15.40;61.90;;;;;;4973882;28;20060;-61
2022/04/04 09:36:47;;;;;;;10.30;7.82;;;15.00;58.40;;;;;;4973730;28;20045;-61
2022/04/04 09:39:14;;;;;;;10.18;8.18;;;13.20;61.30;;;;;;4973992;28;20033;-62
2022/04/04 09:41:40;;;;;;;13.82;9.70;;;13.40;61.60;;;;;;4974178;28;20027;-61
2022/04/04 09:44:07;;;;;;;15.15;10.38;;;14.40;60.00;;;;;;4973986;28;20531;-61
2022/04/04 09:46:38;;;;;;;12.07;8.30;;;16.30;58.60;;;;;;4974679;28;20031;-62
2022/04/04 09:49:13;;;;;;;9.50;7.97;;;13.20;61.90;;;;;;4974120;28;20106;-61
2022/04/04 09:51:55;;;;;;;9.77;7.60;;;13.90;62.00;;;;;;4973520;28;20033;-61
2022/04/04 09:54:26;;;;;;;9.57;7.70;;;13.00;61.80;;;;;;4973823;28;20054;-62
2022/04/04 09:57:12;;;;;;;22.20;9.68;;;14.50;61.00;;;;;;4973633;28;20480;-61
2022/04/04 09:59:39;;;;;;;17.50;12.38;;;13.90;59.40;;;;;;4973696;28;20445;-61
2022/04/04 10:02:05;;;;;;;10.60;8.60;;;14.10;60.70;;;;;;4973732;28;20480;-62
2022/04/04 10:04:35;;;;;;;8.13;7.18;;;13.70;60.60;;;;;;4974254;28;20118;-61
2022/04/04 10:07:09;;;;;;;8.90;7.00;;;12.90;61.50;;;;;;4973315;28;20053;-61
2022/04/04 10:09:35;;;;;;;11.48;7.20;;;13.20;61.90;;;;;;4973320;28;20575;-62
2022/04/04 10:12:03;;;;;;;8.63;6.85;;;13.30;60.90;;;;;;4973404;28;20101;-62
2022/04/04 10:14:31;;;;;;;9.68;7.68;;;11.80;63.30;;;;;;4973323;28;20507;-61
2022/04/04 10:16:57;;;;;;;9.88;6.78;;;13.50;62.30;;;;;;4973198;28;20023;-61
2022/04/04 10:19:27;;;;;;;9.40;7.05;;;14.40;62.00;;;;;;4973301;28;20089;-61
2022/04/04 10:21:53;;;;;;;9.13;7.35;;;14.70;61.30;;;;;;4973084;28;20499;-61
2022/04/04 10:24:19;;;;;;;10.98;8.48;;;14.20;60.30;;;;;;4972545;28;20230;-62
2022/04/04 10:26:50;;;;;;;9.68;7.32;;;13.40;62.20;;;;;;4973151;28;20026;-61
2022/04/04 10:29:19;;;;;;;11.50;7.72;;;14.20;60.90;;;;;;4972842;28;20504;-61
2022/04/04 10:31:54;;;;;;;8.23;7.43;;;12.80;62.80;;;;;;4972289;28;20029;-61
2022/04/04 10:34:24;;;;;;;9.70;7.95;;;12.50;62.80;;;;;;4971510;28;20081;-62
2022/04/04 10:36:58;;;;;;;7.95;7.15;;;13.10;62.80;;;;;;4972892;28;20396;-61
2022/04/04 10:39:44;;;;;;;9.35;7.40;;;15.90;63.00;;;;;;4972507;28;20480;-62
2022/04/04 10:42:28;;;;;;;8.38;6.97;;;16.10;59.50;;;;;;4973325;28;20101;-61
2022/04/04 10:45:00;;;;;;;10.02;7.13;;;13.80;61.40;;;;;;4972866;28;20027;-62
2022/04/04 10:47:28;;;;;;;8.18;7.22;;;12.50;63.20;;;;;;4972875;28;20113;-61
2022/04/04 10:50:16;;;;;;;7.90;7.10;;;14.80;61.30;;;;;;4972931;28;20031;-61
2022/04/04 10:52:44;;;;;;;8.70;7.45;;;15.10;62.60;;;;;;4970556;28;20432;-62
2022/04/04 10:55:28;;;;;;;8.32;6.53;;;13.60;59.70;;;;;;4973165;28;20105;-61
2022/04/04 10:57:59;;;;;;;8.48;6.90;;;12.70;62.10;;;;;;4972289;28;20030;-61
2022/04/04 11:00:34;;;;;;;7.70;6.90;;;12.10;62.90;;;;;;4972810;28;20046;-61
2022/04/04 11:03:01;;;;;;;11.88;9.40;;;13.10;62.70;;;;;;4972185;28;20023;-62
2022/04/04 11:08:30;;;;;;;7.80;6.32;;;13.40;61.10;;;;;;4959877;28;20085;-61
2022/04/04 11:10:57;;;;;;;7.80;6.70;;;13.60;62.60;;;;;;4973184;28;20018;-61
2022/04/04 11:13:24;;;;;;;7.45;6.65;;;13.20;64.30;;;;;;4972985;28;20470;-61
2022/04/04 11:15:55;;;;;;;7.75;6.95;;;14.60;62.50;;;;;;4972520;28;20029;-61
2022/04/04 11:18:41;;;;;;;7.80;6.55;;;14.20;59.00;;;;;;4972343;28;20049;-61
2022/04/04 11:21:07;;;;;;;7.43;6.70;;;13.10;61.30;;;;;;4972335;28;20174;-60
2022/04/04 11:23:34;;;;;;;7.80;7.00;;;13.50;59.50;;;;;;4972457;28;20123;-60
2022/04/04 11:26:03;;;;;;;8.68;7.07;;;13.80;60.50;;;;;;4972709;28;20042;-61
2022/04/04 11:28:35;;;;;;;8.60;6.75;;;13.00;62.30;;;;;;4969111;28;20023;-61
2022/04/04 11:31:11;;;;;;;7.70;6.90;;;13.30;62.20;;;;;;4972355;28;20038;-60
2022/04/04 11:33:54;;;;;;;9.23;7.50;;;13.20;61.70;;;;;;4972190;28;20023;-60
2022/04/04 11:36:28;;;;;;;8.20;6.85;;;12.80;62.20;;;;;;4973362;28;20145;-60
2022/04/04 11:39:01;;;;;;;8.35;6.93;;;12.70;62.00;;;;;;4976397;28;20066;-59
2022/04/04 11:41:35;;;;;;;7.93;6.85;;;12.10;61.00;;;;;;4976281;28;20035;-60
2022/04/04 11:44:02;;;;;;;9.38;7.30;;;12.50;62.70;;;;;;4961142;28;20385;-61
2022/04/04 11:46:27;;;;;;;17.33;14.90;;;12.50;63.20;;;;;;4976239;28;20031;-61
2022/04/04 11:48:54;;;;;;;14.00;11.13;;;12.90;62.40;;;;;;4976076;28;20041;-61
2022/04/04 11:51:25;;;;;;;37.83;26.33;;;11.50;62.60;;;;;;4975880;28;20031;-60
2022/04/04 11:54:01;;;;;;;9.18;7.22;;;12.60;64.70;;;;;;4976039;28;20027;-61
2022/04/04 11:56:27;;;;;;;9.90;7.53;;;13.60;63.30;;;;;;4976358;28;20031;-62
2022/04/04 11:58:55;;;;;;;7.97;7.00;;;13.70;61.60;;;;;;4975145;28;20436;-60
2022/04/04 12:01:27;;;;;;;8.30;7.10;;;14.10;59.90;;;;;;4976277;28;20039;-60
2022/04/04 12:03:53;;;;;;;8.98;7.30;;;13.20;61.30;;;;;;4975676;28;20089;-60
2022/04/04 12:06:20;;;;;;;9.15;6.85;;;12.10;62.60;;;;;;4975877;28;20030;-60
2022/04/04 12:08:46;;;;;;;8.52;7.30;;;12.30;66.30;;;;;;4975708;28;20030;-60
2022/04/04 12:11:12;;;;;;;8.93;7.72;;;12.30;63.80;;;;;;4976077;28;20070;-60
2022/04/04 12:13:49;;;;;;;10.90;8.93;;;12.10;64.80;;;;;;4976006;28;20030;-61
2022/04/04 12:16:16;;;;;;;11.63;8.30;;;12.50;64.00;;;;;;4975835;28;20030;-60
2022/04/04 12:18:42;;;;;;;9.73;7.15;;;13.00;62.20;;;;;;4975655;28;20480;-61
2022/04/04 12:21:08;;;;;;;15.48;10.13;;;12.90;62.50;;;;;;4975315;28;20041;-61
2022/04/04 12:26:23;;;;;;;12.15;7.07;;;12.70;64.00;;;;;;4962421;28;20029;-61
2022/04/04 12:28:49;;;;;;;7.70;6.90;;;13.10;61.60;;;;;;4975633;28;20090;-61
2022/04/04 12:31:21;;;;;;;8.85;7.25;;;13.20;61.90;;;;;;4975706;28;20018;-61
2022/04/04 12:34:07;;;;;;;8.30;6.60;;;13.60;62.10;;;;;;4974915;28;20042;-59
2022/04/04 12:36:38;;;;;;;10.20;6.45;;;13.90;62.80;;;;;;4975102;28;20034;-60
2022/04/04 12:39:05;;;;;;;8.88;7.20;;;13.80;63.50;;;;;;4975210;28;20019;-59
2022/04/04 12:41:44;;;;;;;8.27;7.10;;;13.50;61.20;;;;;;4975021;28;20067;-60
2022/04/04 12:44:11;;;;;;;9.07;7.75;;;12.00;62.60;;;;;;4960277;28;20027;-59
2022/04/04 12:46:37;;;;;;;9.18;7.30;;;12.00;62.60;;;;;;4974946;28;20037;-60
2022/04/04 12:49:17;;;;;;;10.07;6.97;;;12.00;65.10;;;;;;4975575;28;20050;-60
2022/04/04 12:51:51;;;;;;;11.02;7.25;;;12.70;62.90;;;;;;4975059;28;20411;-60
2022/04/04 12:54:30;;;;;;;8.18;6.93;;;13.60;66.10;;;;;;4974973;28;20034;-60